YV1283 SVCS-SVBC
Flight info
| Callsign | YV1283 |
|---|---|
| Flight time | 0h 37m |
| Altitude | 7500 |
| Route | DCT |
| Aircraft | AEST/L-SDFGRY/S |
Departure
| Time | 2026-04-23 10:48 |
|---|---|
| Airport | Caracas Óscar Machado Zuloaga International Airport (SVCS) |
Arrival
| Time | 2026-04-23 11:25 |
|---|---|
| Airport | General José Antonio Anzoategui International Airport (SVBC) |
| Time | Latitude | Longitude | Altitude | Speed | Heading |
|---|---|---|---|---|---|
| 2026-04-23 10:35 | 10.28847 | -66.82027 | 2165 ft | 0 kts | 184° |
| 2026-04-23 10:41 | 10.28846 | -66.82027 | 2161 ft | 1 kts | 184° |
| 2026-04-23 10:41 | 10.28830 | -66.82058 | 2165 ft | 11 kts | 272° |
| 2026-04-23 10:41 | 10.28795 | -66.82121 | 2164 ft | 13 kts | 190° |
| 2026-04-23 10:42 | 10.28784 | -66.82195 | 2165 ft | 11 kts | 272° |
| 2026-04-23 10:42 | 10.28785 | -66.82268 | 2165 ft | 10 kts | 271° |
| 2026-04-23 10:42 | 10.28790 | -66.82335 | 2165 ft | 11 kts | 277° |
| 2026-04-23 10:42 | 10.28796 | -66.82423 | 2166 ft | 14 kts | 271° |
| 2026-04-23 10:43 | 10.28803 | -66.82514 | 2166 ft | 8 kts | 240° |
| 2026-04-23 10:43 | 10.28799 | -66.82516 | 2166 ft | 0 kts | 194° |
| 2026-04-23 10:46 | 10.28782 | -66.82517 | 2162 ft | 6 kts | 162° |
| 2026-04-23 10:47 | 10.28749 | -66.82476 | 2165 ft | 16 kts | 88° |
| 2026-04-23 10:47 | 10.28724 | -66.82081 | 2165 ft | 90 kts | 94° |
| 2026-04-23 10:47 | 10.28666 | -66.81335 | 2176 ft | 120 kts | 94° |
| 2026-04-23 10:47 | 10.28586 | -66.80438 | 2299 ft | 139 kts | 94° |
| 2026-04-23 10:48 | 10.28502 | -66.79392 | 2477 ft | 153 kts | 94° |
| 2026-04-23 10:48 | 10.28453 | -66.78285 | 2735 ft | 155 kts | 91° |
| 2026-04-23 10:48 | 10.28500 | -66.77205 | 3034 ft | 151 kts | 85° |
| 2026-04-23 10:48 | 10.28551 | -66.76139 | 3206 ft | 155 kts | 84° |
| 2026-04-23 10:49 | 10.28673 | -66.75051 | 3439 ft | 154 kts | 81° |
| 2026-04-23 10:49 | 10.28799 | -66.73955 | 3693 ft | 154 kts | 83° |
| 2026-04-23 10:49 | 10.28891 | -66.72871 | 3936 ft | 155 kts | 84° |
| 2026-04-23 10:49 | 10.28952 | -66.71797 | 4174 ft | 154 kts | 86° |
| 2026-04-23 10:50 | 10.28991 | -66.70693 | 4413 ft | 155 kts | 86° |
| 2026-04-23 10:50 | 10.29029 | -66.69598 | 4643 ft | 156 kts | 86° |
| 2026-04-23 10:50 | 10.29060 | -66.68515 | 4858 ft | 156 kts | 86° |
| 2026-04-23 10:50 | 10.29093 | -66.67413 | 5088 ft | 157 kts | 87° |
| 2026-04-23 10:51 | 10.29125 | -66.66304 | 5313 ft | 158 kts | 87° |
| 2026-04-23 10:51 | 10.29157 | -66.65187 | 5535 ft | 159 kts | 88° |
| 2026-04-23 10:51 | 10.29188 | -66.64060 | 5772 ft | 160 kts | 87° |
| 2026-04-23 10:51 | 10.29219 | -66.62924 | 6012 ft | 162 kts | 88° |
| 2026-04-23 10:52 | 10.29249 | -66.61781 | 6245 ft | 163 kts | 88° |
| 2026-04-23 10:52 | 10.29279 | -66.60629 | 6465 ft | 164 kts | 88° |
| 2026-04-23 10:52 | 10.29306 | -66.59461 | 6686 ft | 166 kts | 89° |
| 2026-04-23 10:52 | 10.29332 | -66.58294 | 6921 ft | 166 kts | 88° |
| 2026-04-23 10:53 | 10.29361 | -66.57113 | 7151 ft | 167 kts | 88° |
| 2026-04-23 10:53 | 10.29391 | -66.55934 | 7379 ft | 168 kts | 88° |
| 2026-04-23 10:53 | 10.29422 | -66.54747 | 7582 ft | 170 kts | 89° |
| 2026-04-23 10:53 | 10.29455 | -66.53491 | 7580 ft | 185 kts | 88° |
| 2026-04-23 10:54 | 10.29490 | -66.52140 | 7530 ft | 198 kts | 88° |
| 2026-04-23 10:54 | 10.29526 | -66.50718 | 7488 ft | 205 kts | 88° |
| 2026-04-23 10:54 | 10.29553 | -66.49753 | 7495 ft | 207 kts | 88° |
| 2026-04-23 10:54 | 10.29591 | -66.48281 | 7487 ft | 211 kts | 89° |
| 2026-04-23 10:55 | 10.29630 | -66.46787 | 7494 ft | 212 kts | 88° |
| 2026-04-23 10:55 | 10.29671 | -66.45283 | 7500 ft | 214 kts | 88° |
| 2026-04-23 10:55 | 10.29712 | -66.43769 | 7498 ft | 215 kts | 88° |
| 2026-04-23 10:55 | 10.29758 | -66.42245 | 7502 ft | 216 kts | 88° |
| 2026-04-23 10:56 | 10.29798 | -66.40719 | 7491 ft | 217 kts | 89° |
| 2026-04-23 10:56 | 10.29833 | -66.39189 | 7491 ft | 217 kts | 90° |
| 2026-04-23 10:56 | 10.29780 | -66.37659 | 7494 ft | 217 kts | 94° |
| 2026-04-23 10:56 | 10.29653 | -66.36130 | 7492 ft | 217 kts | 95° |
| 2026-04-23 10:57 | 10.29512 | -66.34601 | 7493 ft | 217 kts | 95° |
| 2026-04-23 10:57 | 10.29377 | -66.33068 | 7478 ft | 218 kts | 95° |
| 2026-04-23 10:57 | 10.29252 | -66.31529 | 7496 ft | 219 kts | 95° |
| 2026-04-23 10:57 | 10.29126 | -66.29988 | 7497 ft | 219 kts | 94° |
| 2026-04-23 10:58 | 10.29003 | -66.28442 | 7488 ft | 220 kts | 94° |
| 2026-04-23 10:58 | 10.28883 | -66.26888 | 7486 ft | 221 kts | 94° |
| 2026-04-23 10:58 | 10.28760 | -66.25333 | 7488 ft | 221 kts | 95° |
| 2026-04-23 10:58 | 10.28637 | -66.23777 | 7483 ft | 222 kts | 94° |
| 2026-04-23 10:59 | 10.28510 | -66.22212 | 7479 ft | 222 kts | 94° |
| 2026-04-23 10:59 | 10.28386 | -66.20644 | 7476 ft | 222 kts | 94° |
| 2026-04-23 10:59 | 10.28260 | -66.19085 | 7479 ft | 222 kts | 95° |
| 2026-04-23 10:59 | 10.28130 | -66.17517 | 7482 ft | 223 kts | 94° |
| 2026-04-23 11:00 | 10.28001 | -66.15948 | 7477 ft | 223 kts | 95° |
| 2026-04-23 11:00 | 10.27873 | -66.14378 | 7472 ft | 223 kts | 94° |
| 2026-04-23 11:00 | 10.27748 | -66.12808 | 7476 ft | 223 kts | 94° |
| 2026-04-23 11:00 | 10.27614 | -66.11243 | 7473 ft | 223 kts | 94° |
| 2026-04-23 11:01 | 10.27485 | -66.09674 | 7471 ft | 223 kts | 94° |
| 2026-04-23 11:01 | 10.27358 | -66.08108 | 7469 ft | 223 kts | 94° |
| 2026-04-23 11:01 | 10.27229 | -66.06537 | 7470 ft | 223 kts | 94° |
| 2026-04-23 11:01 | 10.27100 | -66.04966 | 7472 ft | 223 kts | 94° |
| 2026-04-23 11:02 | 10.26978 | -66.03401 | 7481 ft | 222 kts | 94° |
| 2026-04-23 11:02 | 10.26851 | -66.01838 | 7479 ft | 222 kts | 94° |
| 2026-04-23 11:02 | 10.26727 | -66.00275 | 7477 ft | 222 kts | 94° |
| 2026-04-23 11:02 | 10.26600 | -65.98712 | 7477 ft | 222 kts | 94° |
| 2026-04-23 11:03 | 10.26475 | -65.97152 | 7481 ft | 222 kts | 93° |
| 2026-04-23 11:03 | 10.26356 | -65.95588 | 7472 ft | 222 kts | 94° |
| 2026-04-23 11:03 | 10.26220 | -65.94030 | 7475 ft | 222 kts | 94° |
| 2026-04-23 11:03 | 10.26089 | -65.92466 | 7473 ft | 222 kts | 94° |
| 2026-04-23 11:04 | 10.25956 | -65.90906 | 7476 ft | 222 kts | 94° |
| 2026-04-23 11:04 | 10.25829 | -65.89342 | 7470 ft | 222 kts | 93° |
| 2026-04-23 11:04 | 10.25707 | -65.87779 | 7467 ft | 222 kts | 93° |
| 2026-04-23 11:04 | 10.25580 | -65.86218 | 7475 ft | 222 kts | 94° |
| 2026-04-23 11:05 | 10.25450 | -65.84659 | 7475 ft | 222 kts | 93° |
| 2026-04-23 11:05 | 10.25320 | -65.83099 | 7476 ft | 222 kts | 94° |
| 2026-04-23 11:05 | 10.25195 | -65.81539 | 7485 ft | 222 kts | 93° |
| 2026-04-23 11:05 | 10.25087 | -65.79975 | 7475 ft | 222 kts | 93° |
| 2026-04-23 11:06 | 10.24829 | -65.76849 | 7476 ft | 222 kts | 93° |
| 2026-04-23 11:06 | 10.24697 | -65.75284 | 7474 ft | 222 kts | 94° |
| 2026-04-23 11:06 | 10.24564 | -65.73721 | 7473 ft | 222 kts | 94° |
| 2026-04-23 11:07 | 10.24435 | -65.72162 | 7476 ft | 222 kts | 94° |
| 2026-04-23 11:07 | 10.24306 | -65.70600 | 7471 ft | 222 kts | 93° |
| 2026-04-23 11:07 | 10.24178 | -65.69041 | 7473 ft | 222 kts | 93° |
| 2026-04-23 11:07 | 10.24054 | -65.67477 | 7472 ft | 222 kts | 93° |
| 2026-04-23 11:08 | 10.23933 | -65.65935 | 7467 ft | 222 kts | 93° |
| 2026-04-23 11:08 | 10.23797 | -65.64376 | 7475 ft | 222 kts | 93° |
| 2026-04-23 11:08 | 10.23658 | -65.62817 | 7470 ft | 222 kts | 94° |
| 2026-04-23 11:08 | 10.23527 | -65.61262 | 7472 ft | 221 kts | 93° |
| 2026-04-23 11:09 | 10.23398 | -65.59705 | 7474 ft | 222 kts | 93° |
| 2026-04-23 11:09 | 10.23267 | -65.58147 | 7475 ft | 222 kts | 93° |
| 2026-04-23 11:09 | 10.23144 | -65.56589 | 7475 ft | 222 kts | 93° |
| 2026-04-23 11:09 | 10.23027 | -65.55029 | 7474 ft | 222 kts | 93° |
| 2026-04-23 11:10 | 10.22905 | -65.53471 | 7473 ft | 221 kts | 93° |
| 2026-04-23 11:10 | 10.22782 | -65.51913 | 7472 ft | 221 kts | 93° |
| 2026-04-23 11:10 | 10.22649 | -65.50359 | 7468 ft | 221 kts | 93° |
| 2026-04-23 11:10 | 10.22517 | -65.48807 | 7467 ft | 221 kts | 93° |
| 2026-04-23 11:11 | 10.22390 | -65.47254 | 7472 ft | 221 kts | 93° |
| 2026-04-23 11:11 | 10.22259 | -65.45696 | 7471 ft | 221 kts | 93° |
| 2026-04-23 11:11 | 10.22128 | -65.44141 | 7468 ft | 221 kts | 93° |
| 2026-04-23 11:11 | 10.22004 | -65.42585 | 7467 ft | 221 kts | 94° |
| 2026-04-23 11:12 | 10.21877 | -65.41029 | 7469 ft | 221 kts | 94° |
| 2026-04-23 11:12 | 10.21751 | -65.39478 | 7469 ft | 221 kts | 93° |
| 2026-04-23 11:12 | 10.21623 | -65.37924 | 7471 ft | 221 kts | 93° |
| 2026-04-23 11:12 | 10.21497 | -65.36368 | 7463 ft | 221 kts | 93° |
| 2026-04-23 11:13 | 10.21370 | -65.34815 | 7467 ft | 221 kts | 94° |
| 2026-04-23 11:13 | 10.21233 | -65.33261 | 7462 ft | 221 kts | 94° |
| 2026-04-23 11:13 | 10.21091 | -65.31707 | 7464 ft | 221 kts | 94° |
| 2026-04-23 11:13 | 10.20960 | -65.30155 | 7467 ft | 220 kts | 93° |
| 2026-04-23 11:14 | 10.20838 | -65.28606 | 7469 ft | 220 kts | 94° |
| 2026-04-23 11:14 | 10.20704 | -65.27052 | 7442 ft | 222 kts | 94° |
| 2026-04-23 11:14 | 10.20573 | -65.25495 | 7279 ft | 221 kts | 94° |
| 2026-04-23 11:14 | 10.20433 | -65.23938 | 7086 ft | 221 kts | 94° |
| 2026-04-23 11:15 | 10.20299 | -65.22382 | 6904 ft | 221 kts | 94° |
| 2026-04-23 11:15 | 10.20176 | -65.20830 | 6725 ft | 220 kts | 92° |
| 2026-04-23 11:15 | 10.20058 | -65.19288 | 6551 ft | 219 kts | 93° |
| 2026-04-23 11:15 | 10.19933 | -65.17755 | 6371 ft | 218 kts | 94° |
| 2026-04-23 11:16 | 10.19808 | -65.16248 | 6186 ft | 217 kts | 94° |
| 2026-04-23 11:16 | 10.19685 | -65.14725 | 5991 ft | 216 kts | 93° |
| 2026-04-23 11:16 | 10.19564 | -65.13205 | 5816 ft | 216 kts | 94° |
| 2026-04-23 11:16 | 10.19433 | -65.11689 | 5626 ft | 216 kts | 94° |
| 2026-04-23 11:17 | 10.19302 | -65.10175 | 5439 ft | 215 kts | 94° |
| 2026-04-23 11:17 | 10.19177 | -65.08667 | 5262 ft | 214 kts | 93° |
| 2026-04-23 11:17 | 10.19050 | -65.07164 | 5085 ft | 213 kts | 94° |
| 2026-04-23 11:17 | 10.18927 | -65.05663 | 4884 ft | 212 kts | 93° |
| 2026-04-23 11:18 | 10.18803 | -65.04177 | 4681 ft | 211 kts | 93° |
| 2026-04-23 11:18 | 10.18675 | -65.02697 | 4479 ft | 210 kts | 93° |
| 2026-04-23 11:18 | 10.18552 | -65.01224 | 4277 ft | 209 kts | 93° |
| 2026-04-23 11:18 | 10.18429 | -64.99765 | 4076 ft | 207 kts | 92° |
| 2026-04-23 11:19 | 10.18313 | -64.98315 | 3871 ft | 206 kts | 92° |
| 2026-04-23 11:19 | 10.18189 | -64.96868 | 3686 ft | 205 kts | 94° |
| 2026-04-23 11:19 | 10.18066 | -64.95424 | 3498 ft | 206 kts | 93° |
| 2026-04-23 11:19 | 10.17940 | -64.93986 | 3315 ft | 204 kts | 93° |
| 2026-04-23 11:20 | 10.17824 | -64.92558 | 3099 ft | 200 kts | 94° |
| 2026-04-23 11:20 | 10.17698 | -64.91152 | 2862 ft | 199 kts | 93° |
| 2026-04-23 11:20 | 10.17591 | -64.89752 | 2605 ft | 200 kts | 93° |
| 2026-04-23 11:20 | 10.17470 | -64.88344 | 2375 ft | 200 kts | 94° |
| 2026-04-23 11:21 | 10.17344 | -64.86935 | 2171 ft | 201 kts | 93° |
| 2026-04-23 11:21 | 10.17227 | -64.85536 | 1962 ft | 197 kts | 94° |
| 2026-04-23 11:21 | 10.17107 | -64.84153 | 1727 ft | 196 kts | 92° |
| 2026-04-23 11:21 | 10.16998 | -64.82775 | 1480 ft | 196 kts | 92° |
| 2026-04-23 11:22 | 10.16886 | -64.81405 | 1224 ft | 194 kts | 93° |
| 2026-04-23 11:22 | 10.16768 | -64.80063 | 998 ft | 194 kts | 94° |
| 2026-04-23 11:22 | 10.16644 | -64.78721 | 943 ft | 186 kts | 93° |
| 2026-04-23 11:22 | 10.16562 | -64.77450 | 978 ft | 175 kts | 93° |
| 2026-04-23 11:23 | 10.16430 | -64.76251 | 998 ft | 168 kts | 94° |
| 2026-04-23 11:23 | 10.16333 | -64.75100 | 1008 ft | 159 kts | 92° |
| 2026-04-23 11:23 | 10.16153 | -64.74027 | 983 ft | 152 kts | 111° |
| 2026-04-23 11:23 | 10.15755 | -64.73057 | 962 ft | 142 kts | 115° |
| 2026-04-23 11:24 | 10.15147 | -64.72352 | 765 ft | 128 kts | 137° |
| 2026-04-23 11:24 | 10.14474 | -64.71822 | 581 ft | 115 kts | 140° |
| 2026-04-23 11:24 | 10.13881 | -64.71360 | 419 ft | 102 kts | 141° |
| 2026-04-23 11:24 | 10.13342 | -64.70942 | 311 ft | 93 kts | 142° |
| 2026-04-23 11:25 | 10.12821 | -64.70539 | 219 ft | 96 kts | 142° |
| 2026-04-23 11:25 | 10.12288 | -64.70126 | 85 ft | 95 kts | 142° |
| 2026-04-23 11:25 | 10.11821 | -64.69770 | 28 ft | 67 kts | 142° |
| 2026-04-23 11:25 | 10.11517 | -64.69531 | 29 ft | 46 kts | 142° |
| 2026-04-23 11:26 | 10.11297 | -64.69359 | 32 ft | 35 kts | 144° |
| 2026-04-23 11:26 | 10.11112 | -64.69230 | 33 ft | 29 kts | 145° |
| 2026-04-23 11:26 | 10.10967 | -64.69105 | 32 ft | 26 kts | 144° |
| 2026-04-23 11:26 | 10.10831 | -64.69005 | 32 ft | 23 kts | 141° |
| 2026-04-23 11:27 | 10.10742 | -64.68885 | 31 ft | 21 kts | 106° |
| 2026-04-23 11:27 | 10.10756 | -64.68772 | 34 ft | 14 kts | 75° |
| 2026-04-23 11:27 | 10.10775 | -64.68688 | 34 ft | 10 kts | 80° |
| 2026-04-23 11:27 | 10.10784 | -64.68680 | 34 ft | 0 kts | 357° |